sensor_id;sensor_type;location;lat;lon;timestamp;pressure;altitude;pressure_sealevel;temperature;humidity
56928;BME280;60850;52.502;13.426;2022-11-24T00:02:13;100368.69;;;1.86;100.00
56928;BME280;60850;52.502;13.426;2022-11-24T00:04:40;100376.56;;;1.89;100.00
56928;BME280;60850;52.502;13.426;2022-11-24T00:07:07;100375.72;;;1.98;100.00
56928;BME280;60850;52.502;13.426;2022-11-24T00:09:34;100374.84;;;2.03;100.00
56928;BME280;60850;52.502;13.426;2022-11-24T00:12:03;100373.13;;;2.08;100.00
56928;BME280;60850;52.502;13.426;2022-11-24T00:14:30;100380.13;;;2.05;100.00
56928;BME280;60850;52.502;13.426;2022-11-24T00:16:57;100383.63;;;1.99;100.00
56928;BME280;60850;52.502;13.426;2022-11-24T00:19:24;100371.38;;;2.06;100.00
56928;BME280;60850;52.502;13.426;2022-11-24T00:21:51;100372.25;;;2.06;100.00
56928;BME280;60850;52.502;13.426;2022-11-24T00:24:18;100375.75;;;2.25;100.00
56928;BME280;60850;52.502;13.426;2022-11-24T00:26:45;100374.00;;;2.32;100.00
56928;BME280;60850;52.502;13.426;2022-11-24T00:29:14;100372.25;;;2.32;100.00
56928;BME280;60850;52.502;13.426;2022-11-24T00:31:41;100374.88;;;2.32;100.00
56928;BME280;60850;52.502;13.426;2022-11-24T00:34:10;100377.53;;;2.34;100.00
56928;BME280;60850;52.502;13.426;2022-11-24T00:36:38;100379.25;;;2.24;100.00
56928;BME280;60850;52.502;13.426;2022-11-24T00:39:07;100382.78;;;2.37;100.00
56928;BME280;60850;52.502;13.426;2022-11-24T00:41:36;100372.28;;;2.41;100.00
56928;BME280;60850;52.502;13.426;2022-11-24T00:44:03;100369.66;;;2.49;100.00
56928;BME280;60850;52.502;13.426;2022-11-24T00:46:32;100371.41;;;2.47;100.00
56928;BME280;60850;52.502;13.426;2022-11-24T00:48:59;100372.28;;;2.51;100.00
56928;BME280;60850;52.502;13.426;2022-11-24T00:51:27;100371.41;;;2.55;100.00
56928;BME280;60850;52.502;13.426;2022-11-24T00:53:55;100367.03;;;2.51;100.00
56928;BME280;60850;52.502;13.426;2022-11-24T00:56:22;100371.41;;;2.45;100.00
56928;BME280;60850;52.502;13.426;2022-11-24T00:58:49;100367.91;;;2.34;100.00
56928;BME280;60850;52.502;13.426;2022-11-24T01:01:17;100367.00;;;2.31;100.00
56928;BME280;60850;52.502;13.426;2022-11-24T01:03:46;100369.63;;;2.31;100.00
56928;BME280;60850;52.502;13.426;2022-11-24T01:06:15;100371.38;;;2.16;100.00
56928;BME280;60850;52.502;13.426;2022-11-24T01:08:43;100375.78;;;2.20;100.00
56928;BME280;60850;52.502;13.426;2022-11-24T01:11:12;100374.00;;;2.23;100.00
56928;BME280;60850;52.502;13.426;2022-11-24T01:13:41;100374.91;;;2.22;100.00
56928;BME280;60850;52.502;13.426;2022-11-24T01:16:20;100376.66;;;2.23;100.00
56928;BME280;60850;52.502;13.426;2022-11-24T01:18:49;100381.94;;;2.26;100.00
56928;BME280;60850;52.502;13.426;2022-11-24T01:21:16;100393.28;;;2.17;100.00
56928;BME280;60850;52.502;13.426;2022-11-24T01:23:44;100395.06;;;2.29;100.00
56928;BME280;60850;52.502;13.426;2022-11-24T01:26:12;100398.56;;;2.22;100.00
56928;BME280;60850;52.502;13.426;2022-11-24T01:28:39;100397.69;;;2.12;100.00
56928;BME280;60850;52.502;13.426;2022-11-24T01:31:07;100402.03;;;2.07;100.00
56928;BME280;60850;52.502;13.426;2022-11-24T01:33:35;100394.16;;;2.10;100.00
56928;BME280;60850;52.502;13.426;2022-11-24T01:36:04;100398.53;;;2.06;100.00
56928;BME280;60850;52.502;13.426;2022-11-24T01:38:32;100395.03;;;2.10;100.00
56928;BME280;60850;52.502;13.426;2022-11-24T01:41:00;100391.53;;;2.24;100.00
56928;BME280;60850;52.502;13.426;2022-11-24T01:43:27;100375.78;;;2.33;100.00
56928;BME280;60850;52.502;13.426;2022-11-24T01:45:54;100373.16;;;2.20;100.00
56928;BME280;60850;52.502;13.426;2022-11-24T01:48:25;100373.16;;;2.19;100.00
56928;BME280;60850;52.502;13.426;2022-11-24T01:50:59;100377.50;;;2.15;100.00
56928;BME280;60850;52.502;13.426;2022-11-24T01:53:31;100374.88;;;2.09;100.00
56928;BME280;60850;52.502;13.426;2022-11-24T01:55:58;100379.22;;;1.95;100.00
56928;BME280;60850;52.502;13.426;2022-11-24T01:58:28;100387.97;;;1.94;100.00
56928;BME280;60850;52.502;13.426;2022-11-24T02:00:56;100396.75;;;2.02;100.00
56928;BME280;60850;52.502;13.426;2022-11-24T02:03:27;100405.50;;;1.92;100.00
56928;BME280;60850;52.502;13.426;2022-11-24T02:05:58;100423.94;;;2.06;100.00
56928;BME280;60850;52.502;13.426;2022-11-24T02:08:33;100412.53;;;2.11;100.00
56928;BME280;60850;52.502;13.426;2022-11-24T02:11:03;100403.81;;;2.22;100.00
56928;BME280;60850;52.502;13.426;2022-11-24T02:13:31;100416.09;;;2.24;100.00
56928;BME280;60850;52.502;13.426;2022-11-24T02:15:59;100418.75;;;2.33;100.00
56928;BME280;60850;52.502;13.426;2022-11-24T02:18:26;100426.66;;;2.41;100.00
56928;BME280;60850;52.502;13.426;2022-11-24T02:20:54;100418.75;;;2.39;100.00
56928;BME280;60850;52.502;13.426;2022-11-24T02:23:23;100417.84;;;2.31;100.00
56928;BME280;60850;52.502;13.426;2022-11-24T02:26:02;100417.88;;;2.33;100.00
56928;BME280;60850;52.502;13.426;2022-11-24T02:28:35;100424.00;;;2.30;100.00
56928;BME280;60850;52.502;13.426;2022-11-24T02:31:03;100425.78;;;2.42;100.00
56928;BME280;60850;52.502;13.426;2022-11-24T02:33:32;100424.03;;;2.42;100.00
56928;BME280;60850;52.502;13.426;2022-11-24T02:35:59;100424.84;;;2.22;100.00
56928;BME280;60850;52.502;13.426;2022-11-24T02:38:28;100416.09;;;2.23;100.00
56928;BME280;60850;52.502;13.426;2022-11-24T02:40:56;100427.44;;;2.09;100.00
56928;BME280;60850;52.502;13.426;2022-11-24T02:43:27;100430.97;;;2.08;100.00
56928;BME280;60850;52.502;13.426;2022-11-24T02:45:57;100430.97;;;2.13;100.00
56928;BME280;60850;52.502;13.426;2022-11-24T02:48:24;100434.47;;;2.09;100.00
56928;BME280;60850;52.502;13.426;2022-11-24T02:50:51;100426.59;;;2.13;100.00
56928;BME280;60850;52.502;13.426;2022-11-24T02:53:18;100430.13;;;2.25;100.00
56928;BME280;60850;52.502;13.426;2022-11-24T02:55:45;100437.03;;;1.95;100.00
56928;BME280;60850;52.502;13.426;2022-11-24T02:58:12;100442.31;;;1.93;100.00
56928;BME280;60850;52.502;13.426;2022-11-24T03:00:40;100432.66;;;1.91;100.00
56928;BME280;60850;52.502;13.426;2022-11-24T03:03:08;100427.41;;;1.92;100.00
56928;BME280;60850;52.502;13.426;2022-11-24T03:05:35;100428.31;;;1.98;100.00
56928;BME280;60850;52.502;13.426;2022-11-24T03:08:03;100414.25;;;1.88;100.00
56928;BME280;60850;52.502;13.426;2022-11-24T03:10:30;100415.13;;;1.85;100.00
56928;BME280;60850;52.502;13.426;2022-11-24T03:12:57;100410.72;;;1.89;100.00
56928;BME280;60850;52.502;13.426;2022-11-24T03:15:24;100418.63;;;1.86;100.00
56928;BME280;60850;52.502;13.426;2022-11-24T03:17:53;100415.13;;;1.88;100.00
56928;BME280;60850;52.502;13.426;2022-11-24T03:20:22;100432.59;;;1.76;100.00
56928;BME280;60850;52.502;13.426;2022-11-24T03:25:34;100429.97;;;1.71;100.00
56928;BME280;60850;52.502;13.426;2022-11-24T03:28:01;100432.50;;;1.59;100.00
56928;BME280;60850;52.502;13.426;2022-11-24T03:30:28;100433.44;;;1.69;100.00
56928;BME280;60850;52.502;13.426;2022-11-24T03:32:56;100437.00;;;1.80;100.00
56928;BME280;60850;52.502;13.426;2022-11-24T03:35:24;100438.72;;;1.72;100.00
56928;BME280;60850;52.502;13.426;2022-11-24T03:37:51;100442.22;;;1.71;100.00
56928;BME280;60850;52.502;13.426;2022-11-24T03:40:18;100457.09;;;1.73;100.00
56928;BME280;60850;52.502;13.426;2022-11-24T03:42:45;100462.44;;;1.84;100.00
56928;BME280;60850;52.502;13.426;2022-11-24T03:45:12;100451.91;;;1.88;100.00
56928;BME280;60850;52.502;13.426;2022-11-24T03:47:40;100465.13;;;1.99;100.00
56928;BME280;60850;52.502;13.426;2022-11-24T03:50:08;100461.59;;;1.94;100.00
56928;BME280;60850;52.502;13.426;2022-11-24T03:52:36;100465.09;;;1.93;100.00
56928;BME280;60850;52.502;13.426;2022-11-24T03:55:04;100458.94;;;1.97;100.00
56928;BME280;60850;52.502;13.426;2022-11-24T03:57:31;100454.59;;;2.02;100.00
56928;BME280;60850;52.502;13.426;2022-11-24T03:59:58;100462.47;;;1.93;100.00
56928;BME280;60850;52.502;13.426;2022-11-24T04:02:25;100460.72;;;2.01;100.00
56928;BME280;60850;52.502;13.426;2022-11-24T04:04:52;100465.06;;;1.84;100.00
56928;BME280;60850;52.502;13.426;2022-11-24T04:07:19;100472.06;;;1.86;100.00
56928;BME280;60850;52.502;13.426;2022-11-24T04:09:47;100476.38;;;1.75;100.00
56928;BME280;60850;52.502;13.426;2022-11-24T04:12:15;100479.03;;;1.83;100.00
56928;BME280;60850;52.502;13.426;2022-11-24T04:14:59;100478.22;;;1.96;100.00
56928;BME280;60850;52.502;13.426;2022-11-24T04:17:27;100483.47;;;1.84;100.00
56928;BME280;60850;52.502;13.426;2022-11-24T04:19:54;100473.84;;;1.92;100.00
56928;BME280;60850;52.502;13.426;2022-11-24T04:22:21;100470.38;;;1.99;100.00
56928;BME280;60850;52.502;13.426;2022-11-24T04:24:49;100475.63;;;2.02;100.00
56928;BME280;60850;52.502;13.426;2022-11-24T04:27:16;100472.09;;;1.94;100.00
56928;BME280;60850;52.502;13.426;2022-11-24T04:29:43;100472.94;;;1.85;100.00
56928;BME280;60850;52.502;13.426;2022-11-24T04:32:10;100472.00;;;1.73;100.00
56928;BME280;60850;52.502;13.426;2022-11-24T04:34:37;100472.84;;;1.67;100.00
56928;BME280;60850;52.502;13.426;2022-11-24T04:37:04;100475.50;;;1.72;100.00
56928;BME280;60850;52.502;13.426;2022-11-24T04:39:31;100465.78;;;1.61;100.00
56928;BME280;60850;52.502;13.426;2022-11-24T04:41:59;100474.63;;;1.71;100.00
56928;BME280;60850;52.502;13.426;2022-11-24T04:44:26;100471.06;;;1.60;100.00
56928;BME280;60850;52.502;13.426;2022-11-24T04:46:53;100472.88;;;1.75;100.00
56928;BME280;60850;52.502;13.426;2022-11-24T04:49:21;100474.66;;;1.79;100.00
56928;BME280;60850;52.502;13.426;2022-11-24T04:51:48;100500.09;;;1.86;100.00
56928;BME280;60850;52.502;13.426;2022-11-24T04:54:15;100510.63;;;1.86;100.00
56928;BME280;60850;52.502;13.426;2022-11-24T04:56:42;100513.28;;;1.90;100.00
56928;BME280;60850;52.502;13.426;2022-11-24T04:59:13;100522.91;;;1.96;100.00
56928;BME280;60850;52.502;13.426;2022-11-24T05:01:40;100524.66;;;1.94;100.00
56928;BME280;60850;52.502;13.426;2022-11-24T05:04:08;100517.69;;;1.99;100.00
56928;BME280;60850;52.502;13.426;2022-11-24T05:06:35;100516.78;;;1.97;100.00
56928;BME280;60850;52.502;13.426;2022-11-24T05:09:02;100532.56;;;1.96;100.00
56928;BME280;60850;52.502;13.426;2022-11-24T05:11:30;100524.63;;;1.89;100.00
56928;BME280;60850;52.502;13.426;2022-11-24T05:13:57;100532.56;;;1.94;100.00
56928;BME280;60850;52.502;13.426;2022-11-24T05:16:25;100532.59;;;2.02;100.00
56928;BME280;60850;52.502;13.426;2022-11-24T05:18:52;100533.53;;;2.14;100.00
56928;BME280;60850;52.502;13.426;2022-11-24T05:21:19;100530.97;;;2.27;100.00
56928;BME280;60850;52.502;13.426;2022-11-24T05:23:46;100530.13;;;2.40;100.00
56928;BME280;60850;52.502;13.426;2022-11-24T05:26:13;100528.38;;;2.42;100.00
56928;BME280;60850;52.502;13.426;2022-11-24T05:28:40;100543.28;;;2.41;100.00
56928;BME280;60850;52.502;13.426;2022-11-24T05:31:08;100539.78;;;2.44;100.00
56928;BME280;60850;52.502;13.426;2022-11-24T05:33:36;100543.25;;;2.38;100.00
56928;BME280;60850;52.502;13.426;2022-11-24T05:36:05;100549.41;;;2.39;100.00
56928;BME280;60850;52.502;13.426;2022-11-24T05:38:32;100548.56;;;2.40;100.00
56928;BME280;60850;52.502;13.426;2022-11-24T05:41:00;100545.94;;;2.49;100.00
56928;BME280;60850;52.502;13.426;2022-11-24T05:43:27;100558.25;;;2.56;100.00
56928;BME280;60850;52.502;13.426;2022-11-24T05:45:57;100553.88;;;2.67;100.00
56928;BME280;60850;52.502;13.426;2022-11-24T05:48:24;100547.69;;;2.53;100.00
56928;BME280;60850;52.502;13.426;2022-11-24T05:50:53;100560.84;;;2.50;100.00
56928;BME280;60850;52.502;13.426;2022-11-24T05:53:21;100553.78;;;2.35;100.00
56928;BME280;60850;52.502;13.426;2022-11-24T05:55:48;100553.81;;;2.40;100.00
56928;BME280;60850;52.502;13.426;2022-11-24T05:58:15;100553.78;;;2.37;100.00
56928;BME280;60850;52.502;13.426;2022-11-24T06:00:43;100557.19;;;2.17;100.00
56928;BME280;60850;52.502;13.426;2022-11-24T06:03:10;100563.25;;;2.01;100.00
56928;BME280;60850;52.502;13.426;2022-11-24T06:05:37;100557.13;;;1.98;100.00
56928;BME280;60850;52.502;13.426;2022-11-24T06:08:05;100561.56;;;2.11;100.00
56928;BME280;60850;52.502;13.426;2022-11-24T06:10:33;100565.94;;;2.09;100.00
56928;BME280;60850;52.502;13.426;2022-11-24T06:13:03;100564.97;;;1.93;100.00
56928;BME280;60850;52.502;13.426;2022-11-24T06:15:32;100568.41;;;1.83;100.00
56928;BME280;60850;52.502;13.426;2022-11-24T06:17:58;100577.97;;;1.70;100.00
56928;BME280;60850;52.502;13.426;2022-11-24T06:20:26;100585.88;;;1.72;100.00
56928;BME280;60850;52.502;13.426;2022-11-24T06:22:53;100592.06;;;1.78;100.00
56928;BME280;60850;52.502;13.426;2022-11-24T06:25:21;100586.75;;;1.74;100.00
56928;BME280;60850;52.502;13.426;2022-11-24T06:27:48;100592.78;;;1.57;100.00
56928;BME280;60850;52.502;13.426;2022-11-24T06:30:15;100587.53;;;1.60;100.00
56928;BME280;60850;52.502;13.426;2022-11-24T06:32:42;100607.66;;;1.55;100.00
56928;BME280;60850;52.502;13.426;2022-11-24T06:35:11;100606.00;;;1.70;100.00
56928;BME280;60850;52.502;13.426;2022-11-24T06:37:39;100610.34;;;1.63;100.00
56928;BME280;60850;52.502;13.426;2022-11-24T06:40:07;100609.38;;;1.53;100.00
56928;BME280;60850;52.502;13.426;2022-11-24T06:42:36;100612.88;;;1.54;100.00
56928;BME280;60850;52.502;13.426;2022-11-24T06:45:04;100620.81;;;1.61;100.00
56928;BME280;60850;52.502;13.426;2022-11-24T06:47:31;100618.25;;;1.68;100.00
56928;BME280;60850;52.502;13.426;2022-11-24T06:49:58;100614.78;;;1.70;100.00
56928;BME280;60850;52.502;13.426;2022-11-24T06:52:25;100621.75;;;1.67;100.00
56928;BME280;60850;52.502;13.426;2022-11-24T06:54:52;100616.56;;;1.77;100.00
56928;BME280;60850;52.502;13.426;2022-11-24T06:57:19;100616.63;;;1.88;100.00
56928;BME280;60850;52.502;13.426;2022-11-24T06:59:48;100615.84;;;2.04;100.00
56928;BME280;60850;52.502;13.426;2022-11-24T07:02:15;100618.56;;;2.13;100.00
56928;BME280;60850;52.502;13.426;2022-11-24T07:04:41;100619.41;;;2.11;100.00
56928;BME280;60850;52.502;13.426;2022-11-24T07:07:09;100623.84;;;2.19;100.00
56928;BME280;60850;52.502;13.426;2022-11-24T07:09:35;100624.75;;;2.25;100.00
56928;BME280;60850;52.502;13.426;2022-11-24T07:12:03;100621.22;;;2.24;100.00
56928;BME280;60850;52.502;13.426;2022-11-24T07:14:30;100633.53;;;2.28;100.00
56928;BME280;60850;52.502;13.426;2022-11-24T07:16:59;100627.38;;;2.23;100.00
56928;BME280;60850;52.502;13.426;2022-11-24T07:19:27;100622.16;;;2.28;100.00
56928;BME280;60850;52.502;13.426;2022-11-24T07:21:54;100637.94;;;2.26;100.00
56928;BME280;60850;52.502;13.426;2022-11-24T07:24:21;100634.41;;;2.26;100.00
56928;BME280;60850;52.502;13.426;2022-11-24T07:26:48;100629.16;;;2.26;100.00
56928;BME280;60850;52.502;13.426;2022-11-24T07:29:15;100635.34;;;2.34;100.00
56928;BME280;60850;52.502;13.426;2022-11-24T07:31:42;100634.34;;;2.15;100.00
56928;BME280;60850;52.502;13.426;2022-11-24T07:34:11;100643.09;;;2.12;100.00
56928;BME280;60850;52.502;13.426;2022-11-24T07:36:40;100654.34;;;1.93;100.00
56928;BME280;60850;52.502;13.426;2022-11-24T07:39:07;100648.28;;;1.99;100.00
56928;BME280;60850;52.502;13.426;2022-11-24T07:41:34;100654.41;;;2.04;100.00
56928;BME280;60850;52.502;13.426;2022-11-24T07:44:01;100652.78;;;2.21;100.00
56928;BME280;60850;52.502;13.426;2022-11-24T07:46:28;100653.78;;;2.40;100.00
56928;BME280;60850;52.502;13.426;2022-11-24T07:48:55;100654.69;;;2.48;100.00
56928;BME280;60850;52.502;13.426;2022-11-24T07:51:23;100666.94;;;2.40;100.00
56928;BME280;60850;52.502;13.426;2022-11-24T07:53:50;100664.31;;;2.41;100.00
56928;BME280;60850;52.502;13.426;2022-11-24T07:56:17;100672.19;;;2.40;100.00
56928;BME280;60850;52.502;13.426;2022-11-24T07:58:44;100665.16;;;2.39;100.00
56928;BME280;60850;52.502;13.426;2022-11-24T08:01:13;100666.97;;;2.49;100.00
56928;BME280;60850;52.502;13.426;2022-11-24T08:03:41;100672.28;;;2.60;100.00
56928;BME280;60850;52.502;13.426;2022-11-24T08:06:09;100668.84;;;2.73;100.00
56928;BME280;60850;52.502;13.426;2022-11-24T08:08:38;100656.59;;;2.86;100.00
56928;BME280;60850;52.502;13.426;2022-11-24T08:11:06;100660.13;;;2.94;100.00
56928;BME280;60850;52.502;13.426;2022-11-24T08:13:33;100661.03;;;2.97;100.00
56928;BME280;60850;52.502;13.426;2022-11-24T08:16:05;100657.50;;;2.91;100.00
56928;BME280;60850;52.502;13.426;2022-11-24T08:18:32;100661.03;;;3.00;100.00
56928;BME280;60850;52.502;13.426;2022-11-24T08:21:00;100665.44;;;2.97;100.00
56928;BME280;60850;52.502;13.426;2022-11-24T08:23:27;100665.44;;;3.00;100.00
56928;BME280;60850;52.502;13.426;2022-11-24T08:25:56;100671.59;;;3.14;100.00
56928;BME280;60850;52.502;13.426;2022-11-24T08:28:27;100671.66;;;3.25;100.00
56928;BME280;60850;52.502;13.426;2022-11-24T08:31:00;100668.13;;;3.30;100.00
56928;BME280;60850;52.502;13.426;2022-11-24T08:33:28;100673.41;;;3.43;100.00
56928;BME280;60850;52.502;13.426;2022-11-24T08:35:55;100679.56;;;3.36;100.00
56928;BME280;60850;52.502;13.426;2022-11-24T08:38:22;100679.59;;;3.39;100.00
56928;BME280;60850;52.502;13.426;2022-11-24T08:40:49;100666.41;;;3.51;100.00
56928;BME280;60850;52.502;13.426;2022-11-24T08:43:17;100676.06;;;3.50;100.00
56928;BME280;60850;52.502;13.426;2022-11-24T08:45:44;100676.97;;;3.46;100.00
56928;BME280;60850;52.502;13.426;2022-11-24T08:48:11;100689.22;;;3.35;100.00
56928;BME280;60850;52.502;13.426;2022-11-24T08:50:38;100690.88;;;2.98;100.00
56928;BME280;60850;52.502;13.426;2022-11-24T08:53:05;100688.31;;;3.10;100.00
56928;BME280;60850;52.502;13.426;2022-11-24T08:55:32;100688.31;;;3.22;100.00
56928;BME280;60850;52.502;13.426;2022-11-24T08:57:59;100680.44;;;3.35;100.00
56928;BME280;60850;52.502;13.426;2022-11-24T09:00:27;100679.59;;;3.48;100.00
56928;BME280;60850;52.502;13.426;2022-11-24T09:02:56;100687.47;;;3.36;100.00
56928;BME280;60850;52.502;13.426;2022-11-24T09:05:24;100678.69;;;3.41;100.00
56928;BME280;60850;52.502;13.426;2022-11-24T09:07:51;100684.84;;;3.51;100.00
56928;BME280;60850;52.502;13.426;2022-11-24T09:10:18;100686.63;;;3.61;100.00
56928;BME280;60850;52.502;13.426;2022-11-24T09:12:46;100685.75;;;3.77;100.00
56928;BME280;60850;52.502;13.426;2022-11-24T09:15:13;100699.81;;;3.78;100.00
56928;BME280;60850;52.502;13.426;2022-11-24T09:17:42;100700.72;;;3.81;100.00
56928;BME280;60850;52.502;13.426;2022-11-24T09:20:10;100708.63;;;3.81;100.00
56928;BME280;60850;52.502;13.426;2022-11-24T09:22:37;100703.31;;;3.94;100.00
56928;BME280;60850;52.502;13.426;2022-11-24T09:25:06;100706.84;;;3.97;100.00
56928;BME280;60850;52.502;13.426;2022-11-24T09:27:34;100714.75;;;4.06;100.00
56928;BME280;60850;52.502;13.426;2022-11-24T09:30:02;100714.75;;;4.14;100.00
56928;BME280;60850;52.502;13.426;2022-11-24T09:32:29;100711.22;;;4.23;100.00
56928;BME280;60850;52.502;13.426;2022-11-24T09:34:58;100709.47;;;4.38;100.00
56928;BME280;60850;52.502;13.426;2022-11-24T09:37:25;100708.56;;;4.47;100.00
56928;BME280;60850;52.502;13.426;2022-11-24T09:39:52;100712.94;;;4.56;100.00
56928;BME280;60850;52.502;13.426;2022-11-24T09:42:33;100712.03;;;4.66;100.00
56928;BME280;60850;52.502;13.426;2022-11-24T09:45:17;100711.13;;;4.72;100.00
56928;BME280;60850;52.502;13.426;2022-11-24T09:47:54;100709.34;;;4.77;100.00
56928;BME280;60850;52.502;13.426;2022-11-24T09:50:26;100712.94;;;4.50;100.00
56928;BME280;60850;52.502;13.426;2022-11-24T09:52:57;100719.09;;;4.49;100.00
56928;BME280;60850;52.502;13.426;2022-11-24T09:55:35;100723.53;;;4.45;100.00
56928;BME280;60850;52.502;13.426;2022-11-24T09:58:11;100729.66;;;4.43;100.00
56928;BME280;60850;52.502;13.426;2022-11-24T10:00:40;100730.53;;;4.60;100.00
56928;BME280;60850;52.502;13.426;2022-11-24T10:03:15;100728.66;;;4.92;100.00
56928;BME280;60850;52.502;13.426;2022-11-24T10:05:49;100728.63;;;5.05;100.00
56928;BME280;60850;52.502;13.426;2022-11-24T10:08:26;100730.38;;;5.09;100.00
56928;BME280;60850;52.502;13.426;2022-11-24T10:10:59;100733.94;;;5.02;100.00
56928;BME280;60850;52.502;13.426;2022-11-24T10:13:44;100726.84;;;5.07;100.00
56928;BME280;60850;52.502;13.426;2022-11-24T10:16:25;100725.16;;;4.90;100.00
56928;BME280;60850;52.502;13.426;2022-11-24T10:19:10;100727.72;;;5.10;100.00
56928;BME280;60850;52.502;13.426;2022-11-24T10:21:51;100732.03;;;5.28;100.00
56928;BME280;60850;52.502;13.426;2022-11-24T10:24:47;100718.84;;;5.25;100.00
56928;BME280;60850;52.502;13.426;2022-11-24T10:27:18;100728.56;;;5.21;100.00
56928;BME280;60850;52.502;13.426;2022-11-24T10:29:50;100728.41;;;5.50;100.00
56928;BME280;60850;52.502;13.426;2022-11-24T10:32:21;100733.63;;;5.57;100.00
56928;BME280;60850;52.502;13.426;2022-11-24T10:34:50;100732.81;;;5.50;100.00
56928;BME280;60850;52.502;13.426;2022-11-24T10:37:22;100749.41;;;5.70;100.00
56928;BME280;60850;52.502;13.426;2022-11-24T10:39:58;100745.88;;;5.73;100.00
56928;BME280;60850;52.502;13.426;2022-11-24T10:42:27;100749.31;;;5.87;100.00
56928;BME280;60850;52.502;13.426;2022-11-24T10:44:59;100740.50;;;5.87;100.00
56928;BME280;60850;52.502;13.426;2022-11-24T10:47:28;100744.94;;;5.80;100.00
56928;BME280;60850;52.502;13.426;2022-11-24T10:49:58;100735.34;;;5.67;100.00
56928;BME280;60850;52.502;13.426;2022-11-24T10:52:31;100733.53;;;5.73;100.00
56928;BME280;60850;52.502;13.426;2022-11-24T10:55:03;100730.91;;;5.69;100.00
56928;BME280;60850;52.502;13.426;2022-11-24T10:57:32;100729.97;;;5.76;100.00
56928;BME280;60850;52.502;13.426;2022-11-24T11:00:00;100725.50;;;5.83;100.00
56928;BME280;60850;52.502;13.426;2022-11-24T11:02:31;100732.63;;;5.74;100.00
56928;BME280;60850;52.502;13.426;2022-11-24T11:05:34;100737.94;;;5.74;100.00
56928;BME280;60850;52.502;13.426;2022-11-24T11:08:16;100737.88;;;5.81;100.00
56928;BME280;60850;52.502;13.426;2022-11-24T11:10:46;100749.19;;;6.04;100.00
56928;BME280;60850;52.502;13.426;2022-11-24T11:13:25;100744.63;;;6.23;100.00
56928;BME280;60850;52.502;13.426;2022-11-24T11:15:54;100748.00;;;6.40;100.00
56928;BME280;60850;52.502;13.426;2022-11-24T11:18:21;100747.88;;;6.55;100.00
56928;BME280;60850;52.502;13.426;2022-11-24T11:20:52;100749.38;;;6.79;100.00
56928;BME280;60850;52.502;13.426;2022-11-24T11:23:24;100750.09;;;6.94;100.00
56928;BME280;60850;52.502;13.426;2022-11-24T11:26:18;100742.72;;;7.19;100.00
56928;BME280;60850;52.502;13.426;2022-11-24T11:29:00;100730.94;;;7.39;100.00
56928;BME280;60850;52.502;13.426;2022-11-24T11:31:27;100726.69;;;7.29;100.00
56928;BME280;60850;52.502;13.426;2022-11-24T11:33:59;100740.88;;;7.25;100.00
56928;BME280;60850;52.502;13.426;2022-11-24T11:36:28;100739.22;;;7.16;100.00
56928;BME280;60850;52.502;13.426;2022-11-24T11:38:58;100735.72;;;7.11;100.00
56928;BME280;60850;52.502;13.426;2022-11-24T11:41:30;100742.16;;;6.94;100.00
56928;BME280;60850;52.502;13.426;2022-11-24T11:44:13;100740.34;;;6.99;100.00
56928;BME280;60850;52.502;13.426;2022-11-24T11:46:43;100742.81;;;7.12;100.00
56928;BME280;60850;52.502;13.426;2022-11-24T11:49:11;100739.34;;;7.07;100.00
56928;BME280;60850;52.502;13.426;2022-11-24T11:51:51;100738.47;;;7.07;100.00
56928;BME280;60850;52.502;13.426;2022-11-24T11:54:31;100740.25;;;7.03;100.00
56928;BME280;60850;52.502;13.426;2022-11-24T11:57:06;100737.59;;;7.06;100.00
56928;BME280;60850;52.502;13.426;2022-11-24T11:59:48;100742.34;;;6.77;100.00
56928;BME280;60850;52.502;13.426;2022-11-24T12:05:28;100744.38;;;6.50;100.00
56928;BME280;60850;52.502;13.426;2022-11-24T12:08:07;100747.25;;;6.29;100.00
56928;BME280;60850;52.502;13.426;2022-11-24T12:10:41;100741.97;;;6.24;100.00
56928;BME280;60850;52.502;13.426;2022-11-24T12:13:37;100741.00;;;6.33;100.00
56928;BME280;60850;52.502;13.426;2022-11-24T12:16:13;100736.59;;;6.35;100.00
56928;BME280;60850;52.502;13.426;2022-11-24T12:18:47;100739.28;;;6.30;100.00
56928;BME280;60850;52.502;13.426;2022-11-24T12:21:17;100736.78;;;6.11;100.00
56928;BME280;60850;52.502;13.426;2022-11-24T12:23:56;100734.19;;;6.04;100.00
56928;BME280;60850;52.502;13.426;2022-11-24T12:26:34;100745.63;;;6.10;100.00
56928;BME280;60850;52.502;13.426;2022-11-24T12:29:18;100747.28;;;6.23;100.00
56928;BME280;60850;52.502;13.426;2022-11-24T12:32:00;100742.75;;;6.34;100.00
56928;BME280;60850;52.502;13.426;2022-11-24T12:34:41;100739.16;;;6.41;100.00
56928;BME280;60850;52.502;13.426;2022-11-24T12:37:24;100744.47;;;6.40;100.00
56928;BME280;60850;52.502;13.426;2022-11-24T12:39:56;100740.88;;;6.47;100.00
56928;BME280;60850;52.502;13.426;2022-11-24T12:42:35;100748.75;;;6.54;100.00
56928;BME280;60850;52.502;13.426;2022-11-24T12:45:13;100745.16;;;6.63;100.00
56928;BME280;60850;52.502;13.426;2022-11-24T12:47:55;100757.44;;;6.69;100.00
56928;BME280;60850;52.502;13.426;2022-11-24T12:50:29;100756.41;;;6.82;100.00
56928;BME280;60850;52.502;13.426;2022-11-24T12:52:58;100758.00;;;6.97;100.00
56928;BME280;60850;52.502;13.426;2022-11-24T12:55:29;100757.81;;;7.13;100.00
56928;BME280;60850;52.502;13.426;2022-11-24T12:58:11;100753.31;;;7.22;100.00
56928;BME280;60850;52.502;13.426;2022-11-24T13:00:51;100761.19;;;7.28;100.00